createdAt,value
2022-12-04T00:01:37.858Z,13.30
2022-12-04T00:04:08.351Z,12.63
2022-12-04T00:06:40.631Z,12.73
2022-12-04T00:09:10.756Z,12.67
2022-12-04T00:11:42.220Z,13.20
2022-12-04T00:14:14.839Z,13.70
2022-12-04T00:16:45.019Z,14.03
2022-12-04T00:19:15.360Z,14.47
2022-12-04T00:21:46.074Z,12.93
2022-12-04T00:24:18.674Z,13.00
2022-12-04T00:26:48.848Z,12.30
2022-12-04T00:29:21.836Z,11.10
2022-12-04T00:31:52.464Z,11.67
2022-12-04T00:34:22.898Z,10.87
2022-12-04T00:36:52.990Z,11.20
2022-12-04T00:39:25.430Z,11.13
2022-12-04T00:41:55.533Z,11.57
2022-12-04T00:44:28.354Z,11.30
2022-12-04T00:46:59.037Z,11.27
2022-12-04T00:49:29.858Z,12.07
2022-12-04T00:52:00.167Z,12.00
2022-12-04T00:54:30.703Z,13.43
2022-12-04T00:57:01.954Z,13.10
2022-12-04T00:59:35.265Z,11.90
2022-12-04T01:02:05.377Z,12.87
2022-12-04T01:04:35.480Z,12.40
2022-12-04T01:07:06.061Z,13.60
2022-12-04T01:09:36.522Z,9.53
2022-12-04T01:12:06.969Z,9.70
2022-12-04T01:14:40.079Z,11.00
2022-12-04T01:17:10.220Z,10.43
2022-12-04T01:19:40.321Z,10.67
2022-12-04T01:22:10.430Z,9.33
2022-12-04T01:24:40.902Z,9.67
2022-12-04T01:27:11.870Z,10.67
2022-12-04T01:29:44.580Z,9.43
2022-12-04T01:32:15.370Z,11.03
2022-12-04T01:34:45.712Z,10.47
2022-12-04T01:37:16.172Z,9.13
2022-12-04T01:39:46.268Z,9.17
2022-12-04T01:42:18.192Z,8.90
2022-12-04T01:45:37.349Z,9.37
2022-12-04T01:48:19.234Z,11.73
2022-12-04T01:50:53.241Z,11.73
2022-12-04T01:53:24.684Z,11.90
2022-12-04T01:55:55.392Z,12.10
2022-12-04T01:58:32.464Z,12.00
2022-12-04T02:01:10.406Z,12.00
2022-12-04T02:03:42.447Z,12.03
2022-12-04T02:06:12.631Z,11.97
2022-12-04T02:08:43.054Z,11.80
2022-12-04T02:11:30.775Z,11.50
2022-12-04T02:14:11.782Z,10.80
2022-12-04T02:16:54.277Z,12.50
2022-12-04T02:19:56.623Z,12.53
2022-12-04T02:22:48.410Z,11.37
2022-12-04T02:25:32.157Z,12.10
2022-12-04T02:28:13.704Z,11.33
2022-12-04T02:30:46.525Z,12.30
2022-12-04T02:33:28.016Z,13.07
2022-12-04T02:36:07.996Z,12.70
2022-12-04T02:38:45.124Z,14.00
2022-12-04T02:41:27.184Z,13.03
2022-12-04T02:44:10.434Z,12.63
2022-12-04T02:46:45.281Z,13.57
2022-12-04T02:49:22.282Z,12.13
2022-12-04T02:51:55.346Z,13.03
2022-12-04T02:54:33.340Z,13.77
2022-12-04T02:57:07.824Z,13.23
2022-12-04T02:59:45.540Z,13.03
2022-12-04T03:02:24.792Z,13.90
2022-12-04T03:04:58.737Z,13.17
2022-12-04T03:07:37.010Z,12.93
2022-12-04T03:10:13.910Z,11.83
2022-12-04T03:12:50.758Z,11.60
2022-12-04T03:15:30.232Z,11.27
2022-12-04T03:18:08.255Z,10.87
2022-12-04T03:20:41.677Z,11.93
2022-12-04T03:23:19.963Z,10.83
2022-12-04T03:26:01.407Z,10.90
2022-12-04T03:28:44.529Z,8.40
2022-12-04T03:31:26.476Z,8.57
2022-12-04T03:34:03.096Z,8.00
2022-12-04T03:36:40.940Z,9.67
2022-12-04T03:39:21.639Z,8.30
2022-12-04T03:42:02.968Z,7.60
2022-12-04T03:44:44.140Z,7.67
2022-12-04T03:47:21.343Z,7.27
2022-12-04T03:50:00.207Z,7.47
2022-12-04T03:52:37.484Z,8.00
2022-12-04T03:55:17.100Z,7.13
2022-12-04T03:57:51.996Z,8.67
2022-12-04T04:00:25.255Z,8.10
2022-12-04T04:03:05.915Z,8.80
2022-12-04T04:05:40.624Z,8.83
2022-12-04T04:08:34.163Z,9.13
2022-12-04T04:11:14.519Z,9.20
2022-12-04T04:14:07.672Z,7.27
2022-12-04T04:16:55.591Z,7.50
2022-12-04T04:19:45.077Z,7.47
2022-12-04T04:22:29.956Z,7.67
2022-12-04T04:25:09.089Z,6.00
2022-12-04T04:27:39.405Z,7.97
2022-12-04T04:30:12.268Z,7.47
2022-12-04T04:32:52.400Z,6.93
2022-12-04T04:35:35.877Z,6.53
2022-12-04T04:38:22.829Z,7.13
2022-12-04T04:41:01.558Z,7.43
2022-12-04T04:43:39.851Z,7.13
2022-12-04T04:46:17.916Z,7.33
2022-12-04T04:48:56.443Z,7.57
2022-12-04T04:51:32.083Z,7.77
2022-12-04T04:54:09.220Z,7.70
2022-12-04T04:56:46.070Z,7.73
2022-12-04T04:59:19.250Z,9.37
2022-12-04T05:01:51.207Z,8.80
2022-12-04T05:04:21.369Z,9.57
2022-12-04T05:06:56.441Z,8.23
2022-12-04T05:09:26.780Z,8.40
2022-12-04T05:11:57.046Z,6.90
2022-12-04T05:14:27.170Z,8.13
2022-12-04T05:17:01.376Z,7.67
2022-12-04T05:19:48.153Z,7.23
2022-12-04T05:22:21.041Z,7.27
2022-12-04T05:24:53.803Z,7.63
2022-12-04T05:27:25.121Z,7.80
2022-12-04T05:29:57.472Z,7.73
2022-12-04T05:32:30.859Z,7.90
2022-12-04T05:35:05.193Z,7.17
2022-12-04T05:37:43.474Z,7.27
2022-12-04T05:40:15.025Z,8.37
2022-12-04T05:42:45.232Z,7.13
2022-12-04T05:45:15.592Z,7.77
2022-12-04T05:47:47.603Z,7.20
2022-12-04T05:50:17.642Z,6.13
2022-12-04T05:52:50.333Z,7.00
2022-12-04T05:55:20.594Z,7.47
2022-12-04T05:57:50.727Z,7.30
2022-12-04T06:00:21.959Z,6.57
2022-12-04T06:02:52.195Z,6.67
2022-12-04T06:05:22.956Z,7.00
2022-12-04T06:07:55.718Z,7.57
2022-12-04T06:10:25.836Z,6.70
2022-12-04T06:12:58.349Z,7.13
2022-12-04T06:15:28.468Z,7.77
2022-12-04T06:17:58.624Z,8.43
2022-12-04T06:20:28.778Z,10.93
2022-12-04T06:23:01.660Z,9.37
2022-12-04T06:25:31.978Z,10.90
2022-12-04T06:28:02.098Z,11.73
2022-12-04T06:30:32.243Z,11.23
2022-12-04T06:33:02.368Z,10.07
2022-12-04T06:35:35.895Z,8.70
2022-12-04T06:38:08.644Z,8.70
2022-12-04T06:40:43.200Z,10.90
2022-12-04T06:43:13.275Z,12.23
2022-12-04T06:45:43.886Z,12.00
2022-12-04T06:48:14.264Z,10.83
2022-12-04T06:50:44.413Z,11.37
2022-12-04T06:53:17.147Z,10.83
2022-12-04T06:55:51.717Z,9.40
2022-12-04T06:58:24.642Z,10.00
2022-12-04T07:00:55.048Z,9.00
2022-12-04T07:03:29.451Z,7.87
2022-12-04T07:05:59.490Z,8.80
2022-12-04T07:08:32.264Z,9.67
2022-12-04T07:11:07.708Z,7.47
2022-12-04T07:13:38.624Z,8.77
2022-12-04T07:16:13.606Z,9.40
2022-12-04T07:18:45.119Z,9.90
2022-12-04T07:21:21.155Z,7.97
2022-12-04T07:23:57.707Z,7.53
2022-12-04T07:26:29.521Z,7.67
2022-12-04T07:29:01.677Z,7.77
2022-12-04T07:31:33.267Z,7.53
2022-12-04T07:34:03.405Z,7.70
2022-12-04T07:36:33.521Z,7.87
2022-12-04T07:39:09.675Z,7.40
2022-12-04T07:41:39.914Z,8.30
2022-12-04T07:44:10.118Z,8.73
2022-12-04T07:46:40.198Z,7.70
2022-12-04T07:49:10.348Z,10.43
2022-12-04T07:51:40.441Z,7.37
2022-12-04T07:54:13.151Z,8.37
2022-12-04T07:56:43.383Z,9.30
2022-12-04T07:59:13.676Z,8.57
2022-12-04T08:01:43.879Z,8.77
2022-12-04T08:04:15.301Z,10.23
2022-12-04T08:06:45.810Z,8.83
2022-12-04T08:09:18.516Z,8.03
2022-12-04T08:11:48.572Z,7.63
2022-12-04T08:14:19.153Z,7.33
2022-12-04T08:16:53.052Z,8.00
2022-12-04T08:19:23.434Z,8.10
2022-12-04T08:21:53.798Z,8.47
2022-12-04T08:24:30.720Z,8.90
2022-12-04T08:27:01.020Z,7.93
2022-12-04T08:29:31.226Z,8.17
2022-12-04T08:32:01.342Z,9.23
2022-12-04T08:34:31.764Z,10.00
2022-12-04T08:37:02.107Z,8.87
2022-12-04T08:39:35.033Z,9.00
2022-12-04T08:42:05.116Z,9.27
2022-12-04T08:44:35.173Z,8.73
2022-12-04T08:47:05.280Z,8.67
2022-12-04T08:49:35.620Z,8.53
2022-12-04T08:52:05.764Z,9.07
2022-12-04T08:54:38.485Z,8.53
2022-12-04T08:57:09.715Z,11.87
2022-12-04T08:59:39.791Z,8.87
2022-12-04T09:02:09.945Z,9.73
2022-12-04T09:04:40.209Z,9.97
2022-12-04T09:07:10.380Z,9.03
2022-12-04T09:09:55.381Z,10.07
2022-12-04T09:12:25.696Z,8.93
2022-12-04T09:14:56.100Z,9.83
2022-12-04T09:17:26.184Z,8.93
2022-12-04T09:20:00.728Z,9.23
2022-12-04T09:22:51.270Z,9.33
2022-12-04T09:25:24.679Z,13.23
2022-12-04T09:27:54.863Z,15.37
2022-12-04T09:30:27.394Z,12.40
2022-12-04T09:32:57.610Z,10.13
2022-12-04T09:35:27.768Z,13.23
2022-12-04T09:37:59.191Z,12.43
2022-12-04T09:40:42.897Z,12.43
2022-12-04T09:43:29.199Z,12.20
2022-12-04T09:46:09.575Z,13.20
2022-12-04T09:48:44.132Z,12.47
2022-12-04T09:51:19.742Z,13.77
2022-12-04T09:53:57.600Z,13.30
2022-12-04T09:56:34.978Z,12.17
2022-12-04T09:59:17.110Z,12.50
2022-12-04T10:01:51.395Z,14.50
2022-12-04T10:04:22.482Z,11.47
2022-12-04T10:07:05.091Z,9.07
2022-12-04T10:09:48.117Z,10.50
2022-12-04T10:12:34.869Z,10.40
2022-12-04T10:15:31.575Z,8.93
2022-12-04T10:18:31.812Z,8.97
2022-12-04T10:21:31.107Z,9.80
2022-12-04T10:24:27.094Z,10.03
2022-12-04T10:27:02.299Z,8.73
2022-12-04T10:29:40.371Z,10.60
2022-12-04T10:32:23.267Z,10.37
2022-12-04T10:34:59.174Z,9.33
2022-12-04T10:37:31.364Z,9.20
2022-12-04T10:40:15.966Z,9.03
2022-12-04T10:42:57.729Z,7.90
2022-12-04T10:45:30.400Z,9.63
2022-12-04T10:48:01.660Z,10.63
2022-12-04T10:50:31.827Z,10.87
2022-12-04T10:53:02.396Z,8.10
2022-12-04T10:55:38.329Z,9.77
2022-12-04T10:58:20.563Z,14.63
2022-12-04T11:01:07.112Z,8.93
2022-12-04T11:03:38.076Z,10.63
2022-12-04T11:06:12.525Z,8.83
2022-12-04T11:08:47.086Z,8.83
2022-12-04T11:11:27.443Z,7.90
2022-12-04T11:14:10.069Z,9.57
2022-12-04T11:16:50.013Z,8.03
2022-12-04T11:19:38.939Z,8.60
2022-12-04T11:22:18.641Z,8.23
2022-12-04T11:24:57.940Z,12.87
2022-12-04T11:27:34.881Z,8.13
2022-12-04T11:30:13.251Z,8.73
2022-12-04T11:32:49.221Z,8.30
2022-12-04T11:35:24.878Z,9.63
2022-12-04T11:38:00.987Z,8.70
2022-12-04T11:40:31.982Z,9.13
2022-12-04T11:43:07.669Z,8.07
2022-12-04T11:45:40.490Z,8.53
2022-12-04T11:48:22.427Z,9.07
2022-12-04T11:51:08.375Z,8.50
2022-12-04T11:53:55.099Z,9.17
2022-12-04T11:56:35.069Z,8.50
2022-12-04T11:59:30.824Z,9.00
2022-12-04T12:02:33.700Z,8.30
2022-12-04T12:05:30.076Z,9.80
2022-12-04T12:08:14.246Z,8.50
2022-12-04T12:11:00.057Z,9.27
2022-12-04T12:13:46.094Z,8.57
2022-12-04T12:16:34.813Z,8.60
2022-12-04T12:19:41.335Z,8.13
2022-12-04T12:22:43.460Z,8.17
2022-12-04T12:25:22.530Z,8.17
2022-12-04T12:28:28.000Z,8.40
2022-12-04T12:31:22.626Z,8.63
2022-12-04T12:33:59.959Z,8.00
2022-12-04T12:36:43.454Z,8.33
2022-12-04T12:39:25.431Z,8.10
2022-12-04T12:42:00.184Z,8.33
2022-12-04T12:44:42.322Z,7.57
2022-12-04T12:47:20.520Z,7.53
2022-12-04T12:49:58.402Z,8.23
2022-12-04T12:52:38.340Z,8.03
2022-12-04T12:55:22.883Z,8.33
2022-12-04T12:58:03.308Z,8.43
2022-12-04T13:00:42.315Z,8.60
2022-12-04T13:03:31.436Z,8.73
2022-12-04T13:06:08.954Z,9.43
2022-12-04T13:08:49.342Z,11.13
2022-12-04T13:11:27.066Z,9.20
2022-12-04T13:14:02.371Z,8.10
2022-12-04T13:16:41.304Z,9.47
2022-12-04T13:19:21.175Z,9.27
2022-12-04T13:22:03.806Z,10.37
2022-12-04T13:25:15.161Z,13.83
2022-12-04T13:28:06.652Z,16.50
2022-12-04T13:30:51.717Z,11.20
2022-12-04T13:34:17.731Z,10.97
2022-12-04T13:37:30.371Z,10.60
2022-12-04T13:40:42.235Z,11.27
2022-12-04T13:43:30.298Z,8.10
2022-12-04T13:46:05.479Z,15.60
2022-12-04T13:48:41.006Z,10.43
2022-12-04T13:51:39.240Z,12.23
2022-12-04T13:54:32.281Z,9.47
2022-12-04T13:57:23.639Z,13.20
2022-12-04T14:00:10.113Z,13.50
2022-12-04T14:02:41.514Z,10.27
2022-12-04T14:05:14.989Z,8.90
2022-12-04T14:08:05.623Z,8.97
2022-12-04T14:10:41.820Z,10.67
2022-12-04T14:13:24.160Z,9.57
2022-12-04T14:16:10.206Z,9.10
2022-12-04T14:18:41.503Z,8.03
2022-12-04T14:21:11.779Z,8.87
2022-12-04T14:23:45.103Z,8.70
2022-12-04T14:27:03.640Z,10.40
2022-12-04T14:29:44.934Z,9.67
2022-12-04T14:32:25.991Z,8.70
2022-12-04T14:34:57.562Z,9.43
2022-12-04T14:37:34.404Z,10.93
2022-12-04T14:40:07.980Z,9.47
2022-12-04T14:42:41.763Z,10.00
2022-12-04T14:45:31.877Z,8.77
2022-12-04T14:48:31.338Z,9.97
2022-12-04T14:51:36.694Z,9.53
2022-12-04T14:54:21.180Z,9.07
2022-12-04T14:57:09.653Z,10.00
2022-12-04T14:59:48.464Z,10.40
2022-12-04T15:02:23.665Z,9.90
2022-12-04T15:04:57.270Z,9.00
2022-12-04T15:07:33.990Z,9.40
2022-12-04T15:10:32.296Z,9.50
2022-12-04T15:13:02.430Z,9.63
2022-12-04T15:15:33.659Z,10.10
2022-12-04T15:18:07.179Z,11.50
2022-12-04T15:20:56.097Z,10.37
2022-12-04T15:23:32.163Z,10.27
2022-12-04T15:26:08.216Z,10.60
2022-12-04T15:28:46.451Z,11.03
2022-12-04T15:31:22.798Z,10.23
2022-12-04T15:33:59.082Z,10.27
2022-12-04T15:36:47.681Z,9.87
2022-12-04T15:39:23.288Z,10.90
2022-12-04T15:41:53.936Z,10.60
2022-12-04T15:44:32.788Z,10.17
2022-12-04T15:47:06.454Z,10.00
2022-12-04T15:49:37.015Z,11.57
2022-12-04T15:52:18.831Z,15.43
2022-12-04T15:54:59.356Z,16.13
2022-12-04T15:57:36.672Z,24.50
2022-12-04T16:00:27.120Z,19.27
2022-12-04T16:02:59.013Z,22.73
2022-12-04T16:05:37.540Z,16.77
2022-12-04T16:08:33.067Z,22.10
2022-12-04T16:11:07.211Z,14.10
2022-12-04T16:13:40.951Z,23.47
2022-12-04T16:16:16.910Z,20.13
2022-12-04T16:18:48.464Z,20.73
2022-12-04T16:21:24.257Z,23.40
2022-12-04T16:23:56.982Z,13.73
2022-12-04T16:26:27.071Z,15.23
2022-12-04T16:28:58.616Z,13.37
2022-12-04T16:31:29.856Z,12.77
2022-12-04T16:34:00.781Z,12.43
2022-12-04T16:36:31.063Z,12.57
2022-12-04T16:39:03.882Z,13.93
2022-12-04T16:41:34.165Z,13.30
2022-12-04T16:44:05.075Z,12.27
2022-12-04T16:46:35.288Z,11.60
2022-12-04T16:49:07.632Z,11.33
2022-12-04T16:51:41.312Z,11.77
2022-12-04T16:54:15.836Z,11.37
2022-12-04T16:56:45.935Z,14.33
2022-12-04T16:59:16.482Z,12.37
2022-12-04T17:01:51.248Z,18.37
2022-12-04T17:04:22.220Z,14.27
2022-12-04T17:06:53.010Z,17.83
2022-12-04T17:09:25.890Z,18.67
2022-12-04T17:11:55.998Z,13.23
2022-12-04T17:14:26.334Z,13.83
2022-12-04T17:16:58.975Z,13.83
2022-12-04T17:19:29.253Z,19.70
2022-12-04T17:22:01.781Z,34.87
2022-12-04T17:24:37.825Z,41.57
2022-12-04T17:27:13.068Z,24.87
2022-12-04T17:29:45.073Z,18.90
2022-12-04T17:32:15.558Z,18.87
2022-12-04T17:34:47.091Z,17.67
2022-12-04T17:37:17.411Z,14.57
2022-12-04T17:39:51.102Z,15.67
2022-12-04T17:42:21.651Z,15.63
2022-12-04T17:44:52.324Z,24.40
2022-12-04T17:47:22.459Z,29.97
2022-12-04T17:49:52.757Z,20.07
2022-12-04T17:55:01.839Z,13.53
2022-12-04T17:57:32.041Z,18.00
2022-12-04T18:00:05.374Z,18.17
2022-12-04T18:02:35.527Z,14.40
2022-12-04T18:05:06.193Z,18.20
2022-12-04T18:07:36.510Z,22.07
2022-12-04T18:10:10.953Z,19.10
2022-12-04T18:12:41.130Z,18.70
2022-12-04T18:15:12.128Z,17.23
2022-12-04T18:17:42.819Z,15.57
2022-12-04T18:20:14.273Z,16.33
2022-12-04T18:22:44.447Z,24.40
2022-12-04T18:25:17.284Z,19.70
2022-12-04T18:27:47.580Z,26.73
2022-12-04T18:30:19.070Z,24.97
2022-12-04T18:32:49.180Z,22.67
2022-12-04T18:35:19.557Z,55.73
2022-12-04T18:37:49.824Z,42.57
2022-12-04T18:40:22.883Z,28.90
2022-12-04T18:42:53.023Z,38.30
2022-12-04T18:45:25.753Z,27.07
2022-12-04T18:47:56.088Z,19.17
2022-12-04T18:50:26.165Z,17.00
2022-12-04T18:53:00.937Z,17.60
2022-12-04T18:55:38.315Z,20.90
2022-12-04T18:58:08.722Z,27.40
2022-12-04T19:00:38.952Z,33.03
2022-12-04T19:03:09.079Z,51.97
2022-12-04T19:05:39.710Z,57.67
2022-12-04T19:08:10.091Z,23.20
2022-12-04T19:10:43.054Z,46.13
2022-12-04T19:13:13.261Z,31.20
2022-12-04T19:15:47.468Z,33.20
2022-12-04T19:18:17.832Z,73.43
2022-12-04T19:20:48.191Z,38.43
2022-12-04T19:23:18.328Z,48.27
2022-12-04T19:25:58.061Z,24.00
2022-12-04T19:28:29.035Z,24.37
2022-12-04T19:30:59.868Z,19.53
2022-12-04T19:33:31.176Z,17.70
2022-12-04T19:36:04.010Z,20.53
2022-12-04T19:38:35.407Z,31.67
2022-12-04T19:41:12.091Z,19.57
2022-12-04T19:43:45.467Z,25.57
2022-12-04T19:46:20.219Z,29.23
2022-12-04T19:48:50.392Z,42.10
2022-12-04T19:51:24.070Z,29.83
2022-12-04T19:53:56.510Z,26.30
2022-12-04T19:56:31.435Z,17.60
2022-12-04T19:59:04.453Z,20.47
2022-12-04T20:01:36.142Z,32.23
2022-12-04T20:04:11.620Z,25.33
2022-12-04T20:06:44.936Z,24.90
2022-12-04T20:09:22.842Z,21.37
2022-12-04T20:11:55.761Z,20.90
2022-12-04T20:14:25.967Z,19.37
2022-12-04T20:16:56.386Z,18.20
2022-12-04T20:19:26.544Z,18.27
2022-12-04T20:21:59.477Z,39.83
2022-12-04T20:24:30.008Z,24.37
2022-12-04T20:27:03.254Z,21.93
2022-12-04T20:29:33.573Z,21.17
2022-12-04T20:32:03.682Z,18.80
2022-12-04T20:34:36.533Z,18.43
2022-12-04T20:37:09.208Z,16.83
2022-12-04T20:39:40.689Z,15.57
2022-12-04T20:42:15.670Z,17.83
2022-12-04T20:44:46.233Z,17.87
2022-12-04T20:47:16.484Z,18.10
2022-12-04T20:49:46.693Z,16.60
2022-12-04T20:52:17.031Z,16.20
2022-12-04T20:54:47.533Z,15.90
2022-12-04T20:57:20.402Z,16.70
2022-12-04T20:59:50.755Z,18.73
2022-12-04T21:02:20.934Z,17.03
2022-12-04T21:04:51.311Z,17.17
2022-12-04T21:07:21.438Z,17.83
2022-12-04T21:09:51.749Z,18.37
2022-12-04T21:12:42.865Z,17.83
2022-12-04T21:15:28.592Z,18.93
2022-12-04T21:17:58.732Z,16.97
2022-12-04T21:20:32.638Z,15.73
2022-12-04T21:23:02.695Z,15.40
2022-12-04T21:25:32.910Z,16.70
2022-12-04T21:28:05.788Z,15.83
2022-12-04T21:30:38.203Z,16.43
2022-12-04T21:33:08.317Z,16.90
2022-12-04T21:35:42.402Z,18.30
2022-12-04T21:38:12.755Z,17.03
2022-12-04T21:40:43.134Z,17.67
2022-12-04T21:43:15.811Z,16.87
2022-12-04T21:45:46.228Z,16.03
2022-12-04T21:48:16.386Z,16.47
2022-12-04T21:50:48.657Z,17.17
2022-12-04T21:53:18.840Z,16.30
2022-12-04T21:55:55.430Z,17.23
2022-12-04T21:58:29.421Z,17.27
2022-12-04T22:00:59.841Z,17.53
2022-12-04T22:03:29.958Z,17.07
2022-12-04T22:06:03.369Z,16.50
2022-12-04T22:08:34.948Z,17.93
2022-12-04T22:11:09.419Z,18.07
2022-12-04T22:13:42.694Z,17.43
2022-12-04T22:16:17.334Z,18.13
2022-12-04T22:18:48.741Z,18.53
2022-12-04T22:21:20.133Z,18.30
2022-12-04T22:23:50.314Z,17.27
2022-12-04T22:26:22.084Z,16.60
2022-12-04T22:28:57.495Z,18.37
2022-12-04T22:31:32.585Z,16.80
2022-12-04T22:34:04.354Z,18.10
2022-12-04T22:36:36.264Z,17.77
2022-12-04T22:39:09.874Z,18.00
2022-12-04T22:41:41.127Z,17.10
2022-12-04T22:44:13.808Z,18.47
2022-12-04T22:46:44.281Z,20.80
2022-12-04T22:49:14.535Z,21.80
2022-12-04T22:51:44.744Z,19.07
2022-12-04T22:54:17.277Z,21.10
2022-12-04T22:56:47.475Z,17.63
2022-12-04T22:59:20.403Z,17.27
2022-12-04T23:01:50.687Z,18.50
2022-12-04T23:04:21.244Z,17.67
2022-12-04T23:06:51.442Z,18.97
2022-12-04T23:09:22.061Z,20.13
2022-12-04T23:11:55.743Z,18.30
2022-12-04T23:14:29.074Z,17.97
2022-12-04T23:16:59.970Z,17.87
2022-12-04T23:19:31.316Z,19.30
2022-12-04T23:22:01.619Z,17.00
2022-12-04T23:24:31.707Z,17.83
2022-12-04T23:27:02.835Z,19.90
2022-12-04T23:32:25.793Z,19.00
2022-12-04T23:34:55.967Z,19.50
2022-12-04T23:37:26.315Z,17.57
2022-12-04T23:39:56.773Z,18.47
2022-12-04T23:42:27.026Z,18.23
2022-12-04T23:44:59.848Z,19.20
2022-12-04T23:47:30.254Z,18.37
2022-12-04T23:50:00.599Z,18.50
2022-12-04T23:52:30.993Z,18.67
2022-12-04T23:55:01.046Z,17.93
2022-12-04T23:57:35.150Z,18.57
